createdAt,value
2023-03-16T00:00:14.023Z,99831.26
2023-03-16T00:02:44.997Z,99829.81
2023-03-16T00:05:13.728Z,99829.48
2023-03-16T00:07:43.608Z,99828.25
2023-03-16T00:10:12.686Z,99829.66
2023-03-16T00:12:44.010Z,99828.78
2023-03-16T00:15:14.017Z,99831.77
2023-03-16T00:17:48.517Z,99832.91
2023-03-16T00:20:23.203Z,99828.34
2023-03-16T00:22:51.599Z,99825.48
2023-03-16T00:25:19.738Z,99822.64
2023-03-16T00:27:48.609Z,99819.42
2023-03-16T00:30:17.277Z,99814.98
2023-03-16T00:32:46.131Z,99814.40
2023-03-16T00:35:15.934Z,99820.19
2023-03-16T00:37:44.604Z,99824.64
2023-03-16T00:40:14.217Z,99826.52
2023-03-16T00:42:42.526Z,99828.70
2023-03-16T00:45:18.099Z,99829.34
2023-03-16T00:47:46.909Z,99831.06
2023-03-16T00:50:15.780Z,99828.09
2023-03-16T00:52:44.383Z,99831.05
2023-03-16T00:55:13.432Z,99828.92
2023-03-16T00:57:45.088Z,99827.14
2023-03-16T01:00:16.896Z,99823.78
2023-03-16T01:02:50.269Z,99826.36
2023-03-16T01:05:20.379Z,99826.37
2023-03-16T01:07:49.084Z,99828.12
2023-03-16T01:10:17.755Z,99827.90
2023-03-16T01:12:47.037Z,99832.06
2023-03-16T01:15:16.267Z,99833.90
2023-03-16T01:17:44.589Z,99835.11
2023-03-16T01:20:15.784Z,99831.94
2023-03-16T01:22:45.418Z,99837.26
2023-03-16T01:25:14.046Z,99844.52
2023-03-16T01:27:43.514Z,99843.39
2023-03-16T01:30:13.016Z,99841.14
2023-03-16T01:32:42.156Z,99840.79
2023-03-16T01:35:13.964Z,99846.49
2023-03-16T01:37:42.481Z,99843.31
2023-03-16T01:40:17.015Z,99847.98
2023-03-16T01:42:47.421Z,99851.14
2023-03-16T01:46:04.501Z,99850.21
2023-03-16T01:48:51.861Z,99849.27
2023-03-16T01:52:04.471Z,99853.89
2023-03-16T01:55:15.542Z,99855.10
2023-03-16T01:57:46.148Z,99859.64
2023-03-16T02:00:19.973Z,99864.10
2023-03-16T02:03:17.001Z,99863.41
2023-03-16T02:06:13.137Z,99863.19
2023-03-16T02:08:45.488Z,99865.70
2023-03-16T02:11:18.252Z,99860.97
2023-03-16T02:14:19.045Z,99862.41
2023-03-16T02:16:47.851Z,99873.58
2023-03-16T02:19:32.831Z,99877.88
2023-03-16T02:22:06.509Z,99889.23
2023-03-16T02:24:36.666Z,99889.33
2023-03-16T02:27:10.554Z,99894.96
2023-03-16T02:29:55.424Z,99893.45
2023-03-16T02:32:24.766Z,99895.14
2023-03-16T02:34:53.032Z,99887.95
2023-03-16T02:37:22.794Z,99883.23
2023-03-16T02:39:51.440Z,99876.77
2023-03-16T02:42:22.104Z,99869.52
2023-03-16T02:44:54.428Z,99868.42
2023-03-16T02:47:35.298Z,99860.81
2023-03-16T02:50:06.778Z,99857.99
2023-03-16T02:52:36.002Z,99858.67
2023-03-16T02:55:05.872Z,99863.78
2023-03-16T02:57:35.090Z,99868.42
2023-03-16T03:00:19.393Z,99867.17
2023-03-16T03:02:50.271Z,99868.83
2023-03-16T03:05:18.471Z,99869.77
2023-03-16T03:07:49.396Z,99871.76
2023-03-16T03:10:18.126Z,99875.88
2023-03-16T03:12:49.658Z,99873.23
2023-03-16T03:15:20.206Z,99872.17
2023-03-16T03:18:15.493Z,99868.89
2023-03-16T03:20:43.705Z,99868.39
2023-03-16T03:23:11.952Z,99867.16
2023-03-16T03:25:43.659Z,99871.85
2023-03-16T03:28:11.956Z,99867.77
2023-03-16T03:30:40.588Z,99866.73
2023-03-16T03:33:08.822Z,99864.32
2023-03-16T03:35:38.860Z,99864.52
2023-03-16T03:38:08.292Z,99864.77
2023-03-16T03:40:37.438Z,99869.23
2023-03-16T03:43:06.486Z,99875.67
2023-03-16T03:45:37.645Z,99878.11
2023-03-16T03:48:07.475Z,99880.04
2023-03-16T03:50:38.522Z,99881.59
2023-03-16T03:53:26.321Z,99879.16
2023-03-16T03:56:11.856Z,99885.70
2023-03-16T03:58:41.342Z,99885.72
2023-03-16T04:01:10.070Z,99887.48
2023-03-16T04:03:38.921Z,99886.61
2023-03-16T04:06:08.282Z,99889.73
2023-03-16T04:08:37.386Z,99890.10
2023-03-16T04:11:12.846Z,99891.55
2023-03-16T04:13:41.318Z,99890.09
2023-03-16T04:16:10.598Z,99894.13
2023-03-16T04:18:45.313Z,99897.83
2023-03-16T04:21:17.701Z,99896.73
2023-03-16T04:23:48.562Z,99899.91
2023-03-16T04:26:18.051Z,99898.92
2023-03-16T04:28:47.555Z,99895.69
2023-03-16T04:31:20.027Z,99901.61
2023-03-16T04:33:50.876Z,99895.39
2023-03-16T04:36:19.413Z,99900.16
2023-03-16T04:38:49.940Z,99905.36
2023-03-16T04:41:18.673Z,99907.70
2023-03-16T04:43:55.467Z,99912.02
2023-03-16T04:46:26.893Z,99915.71
2023-03-16T04:48:58.605Z,99919.28
2023-03-16T04:51:28.743Z,99921.58
2023-03-16T04:54:09.736Z,99927.64
2023-03-16T04:56:42.808Z,99931.26
2023-03-16T04:59:20.642Z,99927.79
2023-03-16T05:01:54.491Z,99932.60
2023-03-16T05:04:24.771Z,99941.63
2023-03-16T05:06:53.204Z,99940.42
2023-03-16T05:09:26.002Z,99944.32
2023-03-16T05:11:54.246Z,99947.70
2023-03-16T05:14:25.547Z,99950.70
2023-03-16T05:17:10.577Z,99964.10
2023-03-16T05:19:40.122Z,99962.01
2023-03-16T05:22:08.957Z,99969.38
2023-03-16T05:24:39.447Z,99970.91
2023-03-16T05:27:08.582Z,99971.92
2023-03-16T05:29:37.882Z,99971.72
2023-03-16T05:32:06.745Z,99982.60
2023-03-16T05:34:37.131Z,99981.84
2023-03-16T05:37:06.335Z,99985.83
2023-03-16T05:39:35.698Z,99987.20
2023-03-16T05:42:05.980Z,99989.20
2023-03-16T05:44:44.966Z,99990.95
2023-03-16T05:47:21.166Z,99992.56
2023-03-16T05:49:53.749Z,99995.98
2023-03-16T05:52:34.856Z,99995.77
2023-03-16T05:55:09.750Z,99994.95
2023-03-16T05:57:39.401Z,99996.40
2023-03-16T06:00:12.669Z,99998.55
2023-03-16T06:02:44.192Z,100002.86
2023-03-16T06:05:12.620Z,100002.80
2023-03-16T06:07:42.946Z,100005.44
2023-03-16T06:10:17.787Z,100009.61
2023-03-16T06:12:47.070Z,100015.51
2023-03-16T06:15:15.287Z,100017.66
2023-03-16T06:17:48.936Z,100019.62
2023-03-16T06:20:18.041Z,100024.17
2023-03-16T06:22:46.660Z,100031.14
2023-03-16T06:25:16.498Z,100036.71
2023-03-16T06:27:47.878Z,100036.17
2023-03-16T06:30:18.551Z,100036.85
2023-03-16T06:32:48.446Z,100041.15
2023-03-16T06:35:16.672Z,100044.50
2023-03-16T06:38:01.095Z,100044.60
2023-03-16T06:40:43.778Z,100038.81
2023-03-16T06:43:13.936Z,100037.22
2023-03-16T06:45:46.684Z,100040.24
2023-03-16T06:48:15.342Z,100042.05
2023-03-16T06:50:46.780Z,100043.79
2023-03-16T06:53:16.272Z,100048.27
2023-03-16T06:55:45.095Z,100051.03
2023-03-16T06:58:14.113Z,100054.45
2023-03-16T07:01:13.121Z,100059.43
2023-03-16T07:03:42.094Z,100061.76
2023-03-16T07:06:17.980Z,100062.58
2023-03-16T07:08:46.338Z,100061.96
2023-03-16T07:11:15.095Z,100062.07
2023-03-16T07:13:44.447Z,100069.39
2023-03-16T07:16:14.080Z,100071.37
2023-03-16T07:18:45.262Z,100068.61
2023-03-16T07:21:15.805Z,100076.05
2023-03-16T07:23:44.896Z,100077.92
2023-03-16T07:26:15.049Z,100078.39
2023-03-16T07:28:50.889Z,100084.66
2023-03-16T07:31:20.103Z,100089.28
2023-03-16T07:33:48.497Z,100097.08
2023-03-16T07:36:22.286Z,100102.06
2023-03-16T07:38:55.308Z,100106.95
2023-03-16T07:41:25.558Z,100108.15
2023-03-16T07:43:54.938Z,100104.51
2023-03-16T07:46:28.680Z,100109.23
2023-03-16T07:48:57.101Z,100112.73
2023-03-16T07:51:25.747Z,100116.52
2023-03-16T07:53:54.404Z,100115.14
2023-03-16T07:56:33.627Z,100122.05
2023-03-16T07:59:14.476Z,100122.27
2023-03-16T08:01:43.913Z,100120.60
2023-03-16T08:04:12.656Z,100121.40
2023-03-16T08:06:43.099Z,100124.20
2023-03-16T08:09:11.909Z,100124.20
2023-03-16T08:11:41.806Z,100126.20
2023-03-16T08:14:11.681Z,100121.64
2023-03-16T08:16:58.413Z,100120.00
2023-03-16T08:19:31.015Z,100119.35
2023-03-16T08:22:02.075Z,100118.41
2023-03-16T08:24:36.648Z,100115.77
2023-03-16T08:27:06.141Z,100118.30
2023-03-16T08:29:35.259Z,100120.20
2023-03-16T08:32:04.460Z,100120.17
2023-03-16T08:34:40.090Z,100117.48
2023-03-16T08:37:09.955Z,100118.55
2023-03-16T08:39:44.654Z,100117.00
2023-03-16T08:42:16.874Z,100121.67
2023-03-16T08:44:53.435Z,100123.11
2023-03-16T08:47:23.131Z,100128.71
2023-03-16T08:49:52.352Z,100129.27
2023-03-16T08:52:22.973Z,100129.36
2023-03-16T08:55:02.369Z,100132.38
2023-03-16T08:57:33.520Z,100137.49
2023-03-16T09:00:01.920Z,100140.87
2023-03-16T09:02:31.648Z,100144.77
2023-03-16T09:04:59.877Z,100146.04
2023-03-16T09:07:28.357Z,100156.73
2023-03-16T09:10:05.962Z,100161.92
2023-03-16T09:12:36.311Z,100158.80
2023-03-16T09:15:06.776Z,100165.73
2023-03-16T09:17:39.407Z,100167.69
2023-03-16T09:20:21.832Z,100166.68
2023-03-16T09:22:51.561Z,100170.08
2023-03-16T09:25:20.911Z,100169.93
2023-03-16T09:27:50.896Z,100175.18
2023-03-16T09:30:19.972Z,100171.38
2023-03-16T09:32:50.721Z,100171.73
2023-03-16T09:35:19.781Z,100176.24
2023-03-16T09:38:05.162Z,100177.13
2023-03-16T09:40:36.245Z,100174.65
2023-03-16T09:43:26.129Z,100175.38
2023-03-16T09:46:31.352Z,100175.81
2023-03-16T09:48:59.556Z,100176.23
2023-03-16T09:51:47.136Z,100179.90
2023-03-16T09:54:27.786Z,100176.59
2023-03-16T09:56:56.340Z,100175.74
2023-03-16T09:59:24.850Z,100176.08
2023-03-16T10:02:15.820Z,100176.27
2023-03-16T10:05:08.098Z,100178.50
2023-03-16T10:08:03.920Z,100177.84
2023-03-16T10:10:49.448Z,100174.80
2023-03-16T10:13:22.255Z,100174.91
2023-03-16T10:15:51.476Z,100178.88
2023-03-16T10:18:28.824Z,100174.46
2023-03-16T10:20:58.149Z,100173.80
2023-03-16T10:23:26.563Z,100175.54
2023-03-16T10:25:55.584Z,100178.20
2023-03-16T10:28:28.532Z,100183.32
2023-03-16T10:30:59.373Z,100183.16
2023-03-16T10:33:34.680Z,100182.34
2023-03-16T10:36:34.984Z,100188.05
2023-03-16T10:39:05.436Z,100187.55
2023-03-16T10:41:38.279Z,100191.34
2023-03-16T10:44:14.091Z,100190.21
2023-03-16T10:46:51.241Z,100191.35
2023-03-16T10:49:36.575Z,100188.63
2023-03-16T10:52:12.117Z,100193.31
2023-03-16T10:54:40.837Z,100200.84
2023-03-16T10:57:25.468Z,100201.42
2023-03-16T10:59:55.397Z,100198.89
2023-03-16T11:02:31.990Z,100194.15
2023-03-16T11:05:11.078Z,100189.74
2023-03-16T11:07:58.823Z,100189.17
2023-03-16T11:10:36.168Z,100193.29
2023-03-16T11:13:09.288Z,100192.58
2023-03-16T11:15:48.849Z,100195.85
2023-03-16T11:18:36.838Z,100197.77
2023-03-16T11:21:18.374Z,100199.41
2023-03-16T11:23:49.910Z,100197.78
2023-03-16T11:26:25.438Z,100200.10
2023-03-16T11:29:02.290Z,100202.72
2023-03-16T11:31:39.636Z,100203.38
2023-03-16T11:34:16.318Z,100208.46
2023-03-16T11:37:25.809Z,100208.55
2023-03-16T11:40:17.305Z,100212.22
2023-03-16T11:43:00.159Z,100219.80
2023-03-16T11:45:43.322Z,100219.48
2023-03-16T11:48:24.422Z,100223.48
2023-03-16T11:51:08.680Z,100227.38
2023-03-16T11:54:03.061Z,100229.92
2023-03-16T11:56:35.596Z,100233.22
2023-03-16T11:59:25.046Z,100241.04
2023-03-16T12:02:15.390Z,100250.81
2023-03-16T12:05:19.410Z,100258.09
2023-03-16T12:07:51.981Z,100262.61
2023-03-16T12:10:29.369Z,100263.02
2023-03-16T12:13:31.112Z,100268.16
2023-03-16T12:16:15.425Z,100271.77
2023-03-16T12:18:49.820Z,100271.18
2023-03-16T12:21:39.718Z,100274.49
2023-03-16T12:24:14.631Z,100274.74
2023-03-16T12:26:43.432Z,100276.48
2023-03-16T12:29:37.892Z,100284.09
2023-03-16T12:32:38.758Z,100279.52
2023-03-16T12:35:47.681Z,100278.40
2023-03-16T12:38:32.615Z,100278.41
2023-03-16T12:41:46.492Z,100280.50
2023-03-16T12:44:23.104Z,100278.91
2023-03-16T12:47:02.165Z,100279.55
2023-03-16T12:49:34.256Z,100287.34
2023-03-16T12:52:10.104Z,100287.58
2023-03-16T12:55:12.435Z,100288.46
2023-03-16T12:57:42.620Z,100289.70
2023-03-16T13:00:12.809Z,100293.29
2023-03-16T13:02:49.690Z,100296.84
2023-03-16T13:05:19.398Z,100296.23
2023-03-16T13:07:50.075Z,100296.91
2023-03-16T13:10:23.127Z,100300.58
2023-03-16T13:12:52.009Z,100302.48
2023-03-16T13:15:21.548Z,100305.08
2023-03-16T13:18:11.649Z,100308.21
2023-03-16T13:20:48.490Z,100309.08
2023-03-16T13:23:26.092Z,100314.77
2023-03-16T13:26:05.830Z,100318.77
2023-03-16T13:28:36.590Z,100314.84
2023-03-16T13:31:07.154Z,100315.20
2023-03-16T13:33:37.601Z,100315.75
2023-03-16T13:36:06.688Z,100315.27
2023-03-16T13:38:37.733Z,100315.19
2023-03-16T13:41:11.188Z,100311.73
2023-03-16T13:43:44.395Z,100306.59
2023-03-16T13:46:21.506Z,100303.88
2023-03-16T13:48:50.562Z,100305.06
2023-03-16T13:51:21.252Z,100312.05
2023-03-16T13:53:51.607Z,100319.41
2023-03-16T13:56:23.996Z,100324.31
2023-03-16T13:58:53.939Z,100320.65
2023-03-16T14:01:26.223Z,100318.51
2023-03-16T14:04:13.925Z,100327.26
2023-03-16T14:07:01.002Z,100319.51
2023-03-16T14:09:34.657Z,100325.63
2023-03-16T14:12:03.760Z,100324.94
2023-03-16T14:14:41.550Z,100333.06
2023-03-16T14:17:15.084Z,100343.86
2023-03-16T14:19:51.981Z,100348.35
2023-03-16T14:22:24.217Z,100359.57
2023-03-16T14:24:54.861Z,100362.23
2023-03-16T14:27:39.690Z,100366.04
2023-03-16T14:30:15.078Z,100372.50
2023-03-16T14:32:56.770Z,100374.63
2023-03-16T14:35:28.433Z,100376.51
2023-03-16T14:37:57.362Z,100378.35
2023-03-16T14:40:27.329Z,100381.70
2023-03-16T14:43:00.106Z,100379.87
2023-03-16T14:45:34.954Z,100381.13
2023-03-16T14:48:18.339Z,100386.70
2023-03-16T14:50:52.783Z,100397.65
2023-03-16T14:53:22.199Z,100402.42
2023-03-16T14:55:54.170Z,100410.20
2023-03-16T14:58:24.764Z,100406.02
2023-03-16T15:00:53.920Z,100412.25
2023-03-16T15:03:34.670Z,100416.27
2023-03-16T15:06:03.306Z,100415.89
2023-03-16T15:08:33.912Z,100413.70
2023-03-16T15:11:06.052Z,100418.34
2023-03-16T15:13:40.862Z,100424.58
2023-03-16T15:16:11.697Z,100425.36
2023-03-16T15:18:40.598Z,100421.32
2023-03-16T15:21:14.801Z,100423.29
2023-03-16T15:23:43.491Z,100428.99
2023-03-16T15:26:14.344Z,100433.10
2023-03-16T15:28:43.458Z,100444.67
2023-03-16T15:31:16.195Z,100449.67
2023-03-16T15:33:46.166Z,100450.58
2023-03-16T15:36:16.696Z,100457.46
2023-03-16T15:38:49.796Z,100461.39
2023-03-16T15:41:18.618Z,100460.91
2023-03-16T15:43:48.387Z,100469.54
2023-03-16T15:46:18.073Z,100474.57
2023-03-16T15:48:46.994Z,100476.27
2023-03-16T15:51:27.134Z,100481.05
2023-03-16T15:53:59.768Z,100486.75
2023-03-16T15:56:53.780Z,100492.13
2023-03-16T15:59:27.496Z,100496.01
2023-03-16T16:01:58.398Z,100502.63
2023-03-16T16:04:27.585Z,100511.36
2023-03-16T16:06:57.613Z,100517.14
2023-03-16T16:09:45.949Z,100519.85
2023-03-16T16:12:53.864Z,100529.55
2023-03-16T16:15:37.447Z,100538.73
2023-03-16T16:18:32.062Z,100545.45
2023-03-16T16:21:18.020Z,100546.79
2023-03-16T16:23:48.096Z,100549.69
2023-03-16T16:26:55.314Z,100555.44
2023-03-16T16:29:30.200Z,100559.48
2023-03-16T16:31:59.361Z,100558.20
2023-03-16T16:34:32.296Z,100562.61
2023-03-16T16:37:01.209Z,100561.12
2023-03-16T16:39:31.089Z,100568.08
2023-03-16T16:42:01.944Z,100567.48
2023-03-16T16:44:34.540Z,100570.12
2023-03-16T16:47:21.845Z,100573.58
2023-03-16T16:49:52.168Z,100579.59
2023-03-16T16:52:21.119Z,100587.16
2023-03-16T16:54:49.682Z,100590.95
2023-03-16T16:57:18.687Z,100594.42
2023-03-16T16:59:48.155Z,100601.92
2023-03-16T17:02:31.430Z,100602.48
2023-03-16T17:05:01.527Z,100601.84
2023-03-16T17:07:33.699Z,100607.04
2023-03-16T17:10:25.544Z,100611.23
2023-03-16T17:13:29.282Z,100613.30
2023-03-16T17:16:10.008Z,100612.51
2023-03-16T17:21:32.696Z,100624.54
2023-03-16T17:24:09.700Z,100622.86
2023-03-16T17:26:42.546Z,100628.06
2023-03-16T17:29:25.963Z,100629.48
2023-03-16T17:32:02.582Z,100634.31
2023-03-16T17:34:35.624Z,100637.60
2023-03-16T17:37:10.754Z,100642.80
2023-03-16T17:39:39.898Z,100640.95
2023-03-16T17:42:16.224Z,100650.27
2023-03-16T17:44:48.140Z,100653.34
2023-03-16T17:47:21.131Z,100653.67
2023-03-16T17:49:52.054Z,100647.45
2023-03-16T17:52:27.880Z,100644.35
2023-03-16T17:55:00.711Z,100644.50
2023-03-16T17:57:32.570Z,100636.68
2023-03-16T18:00:01.450Z,100635.81
2023-03-16T18:02:49.967Z,100641.86
2023-03-16T18:05:24.247Z,100637.68
2023-03-16T18:07:54.025Z,100642.70
2023-03-16T18:10:42.671Z,100647.55
2023-03-16T18:13:27.820Z,100654.33
2023-03-16T18:15:59.846Z,100654.52
2023-03-16T18:18:37.061Z,100646.76
2023-03-16T18:21:09.011Z,100651.10
2023-03-16T18:23:39.869Z,100649.77
2023-03-16T18:26:09.282Z,100655.45
2023-03-16T18:28:38.294Z,100659.08
2023-03-16T18:31:07.856Z,100658.55
2023-03-16T18:33:39.599Z,100663.59
2023-03-16T18:36:20.184Z,100665.18
2023-03-16T18:38:55.566Z,100667.27
2023-03-16T18:41:33.681Z,100669.00
2023-03-16T18:44:14.878Z,100673.52
2023-03-16T18:46:45.838Z,100674.58
2023-03-16T18:49:19.345Z,100678.21
2023-03-16T18:51:50.530Z,100679.27
2023-03-16T18:54:32.091Z,100683.95
2023-03-16T18:57:01.518Z,100683.43
2023-03-16T18:59:30.329Z,100688.75
2023-03-16T19:01:58.702Z,100690.65
2023-03-16T19:04:30.815Z,100687.04
2023-03-16T19:06:59.500Z,100689.15
2023-03-16T19:09:29.278Z,100692.79
2023-03-16T19:11:59.828Z,100692.32
2023-03-16T19:14:31.780Z,100690.24
2023-03-16T19:17:05.342Z,100696.86
2023-03-16T19:19:34.976Z,100694.50
2023-03-16T19:22:10.001Z,100699.87
2023-03-16T19:24:51.793Z,100701.11
2023-03-16T19:27:25.910Z,100700.98
2023-03-16T19:29:56.578Z,100707.71
2023-03-16T19:32:25.889Z,100705.67
2023-03-16T19:34:58.655Z,100707.52
2023-03-16T19:37:30.173Z,100708.40
2023-03-16T19:39:59.112Z,100712.71
2023-03-16T19:42:29.991Z,100716.85
2023-03-16T19:44:58.620Z,100719.12
2023-03-16T19:47:33.335Z,100716.77
2023-03-16T19:50:02.085Z,100720.96
2023-03-16T19:52:32.798Z,100723.90
2023-03-16T19:55:01.746Z,100722.02
2023-03-16T19:57:31.758Z,100728.25
2023-03-16T20:00:06.679Z,100731.92
2023-03-16T20:02:40.482Z,100732.66
2023-03-16T20:05:16.331Z,100731.52
2023-03-16T20:07:44.629Z,100732.10
2023-03-16T20:10:18.363Z,100726.80
2023-03-16T20:12:58.837Z,100730.08
2023-03-16T20:15:38.306Z,100730.94
2023-03-16T20:18:06.912Z,100733.52
2023-03-16T20:20:35.341Z,100733.86
2023-03-16T20:23:14.087Z,100736.63
2023-03-16T20:25:42.908Z,100736.45
2023-03-16T20:28:18.918Z,100738.50
2023-03-16T20:30:47.807Z,100740.39
2023-03-16T20:33:38.132Z,100740.23
2023-03-16T20:36:10.826Z,100741.92
2023-03-16T20:38:39.723Z,100743.31
2023-03-16T20:41:13.974Z,100745.73
2023-03-16T20:43:43.027Z,100746.44
2023-03-16T20:46:17.376Z,100752.98
2023-03-16T20:48:46.285Z,100751.08
2023-03-16T20:51:18.918Z,100749.20
2023-03-16T20:53:51.518Z,100746.61
2023-03-16T20:56:22.328Z,100747.66
2023-03-16T20:58:54.777Z,100747.67
2023-03-16T21:01:23.610Z,100747.36
2023-03-16T21:03:55.469Z,100749.80
2023-03-16T21:06:30.020Z,100747.20
2023-03-16T21:09:00.125Z,100756.72
2023-03-16T21:11:35.222Z,100755.88
2023-03-16T21:14:05.078Z,100756.22
2023-03-16T21:16:34.139Z,100755.19
2023-03-16T21:19:02.783Z,100750.85
2023-03-16T21:21:31.811Z,100749.31
2023-03-16T21:24:04.518Z,100752.40
2023-03-16T21:26:34.099Z,100754.11
2023-03-16T21:29:06.746Z,100751.00
2023-03-16T21:31:37.363Z,100757.05
2023-03-16T21:34:06.161Z,100763.61
2023-03-16T21:36:34.611Z,100769.02
2023-03-16T21:39:06.536Z,100768.19
2023-03-16T21:41:35.686Z,100769.92
2023-03-16T21:44:07.677Z,100773.89
2023-03-16T21:46:37.361Z,100777.73
2023-03-16T21:49:06.586Z,100778.80
2023-03-16T21:51:36.279Z,100779.36
2023-03-16T21:54:07.804Z,100779.40
2023-03-16T21:56:42.096Z,100783.91
2023-03-16T21:59:10.942Z,100783.55
2023-03-16T22:01:54.678Z,100782.17
2023-03-16T22:04:29.946Z,100784.95
2023-03-16T22:06:58.176Z,100789.64
2023-03-16T22:09:30.421Z,100801.89
2023-03-16T22:11:59.281Z,100804.30
2023-03-16T22:14:31.609Z,100810.34
2023-03-16T22:17:03.082Z,100813.44
2023-03-16T22:19:32.148Z,100813.45
2023-03-16T22:22:03.671Z,100822.95
2023-03-16T22:24:36.032Z,100823.98
2023-03-16T22:27:04.692Z,100822.45
2023-03-16T22:29:34.927Z,100827.16
2023-03-16T22:32:07.101Z,100826.69
2023-03-16T22:34:45.720Z,100822.35
2023-03-16T22:37:21.118Z,100823.23
2023-03-16T22:39:49.872Z,100823.58
2023-03-16T22:42:33.433Z,100826.68
2023-03-16T22:45:02.587Z,100829.61
2023-03-16T22:47:37.076Z,100832.23
2023-03-16T22:50:07.461Z,100835.38
2023-03-16T22:52:35.676Z,100835.73
2023-03-16T22:55:04.650Z,100838.85
2023-03-16T22:57:32.954Z,100839.89
2023-03-16T23:00:01.339Z,100839.20
2023-03-16T23:02:30.898Z,100836.63
2023-03-16T23:04:59.141Z,100836.63
2023-03-16T23:07:28.202Z,100839.56
2023-03-16T23:09:56.925Z,100838.88
2023-03-16T23:12:27.126Z,100840.25
2023-03-16T23:14:56.306Z,100843.02
2023-03-16T23:17:24.504Z,100845.13
2023-03-16T23:19:54.808Z,100846.33
2023-03-16T23:22:24.213Z,100846.81
2023-03-16T23:24:52.530Z,100847.83
2023-03-16T23:27:21.759Z,100844.73
2023-03-16T23:29:49.991Z,100841.98
2023-03-16T23:32:18.197Z,100838.03
2023-03-16T23:34:46.569Z,100837.55
2023-03-16T23:37:15.923Z,100838.09
2023-03-16T23:39:44.844Z,100844.64
2023-03-16T23:42:13.010Z,100848.45
2023-03-16T23:44:42.818Z,100846.91
2023-03-16T23:47:11.449Z,100848.60
2023-03-16T23:49:40.122Z,100849.64
2023-03-16T23:52:09.979Z,100850.52
2023-03-16T23:54:38.549Z,100850.73
2023-03-16T23:57:08.943Z,100850.74
2023-03-16T23:59:37.258Z,100849.20
